Time;durP1;ratioP1;P1;durP2;ratioP2;P2;SDS_P1;SDS_P2;PMS_P1;PMS_P2;Temp;Humidity;BMP_temperature;BMP_pressure;BME280_temperature;BME280_humidity;BME280_pressure;Samples;Min_cycle;Max_cycle;Signal;HPM_P1;HPM_P2
2023/06/26 00:01:05;;;;;;;2.80;2.60;;;;;;;24.40;51.94;97492.91;4990713;28;20222;-29
2023/06/26 00:03:32;;;;;;;3.07;2.77;;;;;;;24.39;51.73;97494.63;4973252;28;20208;-29
2023/06/26 00:06:00;;;;;;;3.30;3.00;;;;;;;24.40;51.43;97495.50;4984473;28;20684;-28
2023/06/26 00:08:28;;;;;;;3.30;3.00;;;;;;;24.39;51.54;97502.31;4979171;28;20252;-29
2023/06/26 00:10:54;;;;;;;3.20;2.87;;;;;;;24.38;51.99;97498.03;4984044;28;20496;-28
2023/06/26 00:13:22;;;;;;;3.20;2.90;;;;;;;24.38;51.90;97505.75;4986756;28;20606;-28
2023/06/26 00:15:48;;;;;;;3.03;2.70;;;;;;;24.38;52.09;97504.88;4984162;28;20239;-28
2023/06/26 00:18:15;;;;;;;3.20;2.90;;;;;;;24.37;51.86;97492.88;4988759;28;20700;-29
2023/06/26 00:20:41;;;;;;;3.17;2.87;;;;;;;24.38;51.80;97504.88;4983851;28;20207;-29
2023/06/26 00:23:08;;;;;;;3.13;2.83;;;;;;;24.38;51.96;97504.88;4991027;28;20207;-28
2023/06/26 00:25:35;;;;;;;3.20;2.90;;;;;;;24.38;51.91;97503.16;4980028;28;20270;-28
2023/06/26 00:28:01;;;;;;;3.23;2.93;;;;;;;24.34;51.69;97491.09;4972290;28;20243;-28
2023/06/26 00:30:28;;;;;;;4.20;2.53;;;;;;;24.40;52.17;97506.66;4978621;28;20207;-29
2023/06/26 00:32:54;;;;;;;3.10;2.80;;;;;;;24.39;51.95;97499.75;4984333;28;20207;-28
2023/06/26 00:35:21;;;;;;;2.90;2.70;;;;;;;24.34;51.66;97491.09;4984854;28;20209;-28
2023/06/26 00:37:48;;;;;;;3.20;2.90;;;;;;;24.41;51.96;97503.22;4986351;28;20851;-28
2023/06/26 00:40:15;;;;;;;3.53;3.23;;;;;;;24.43;51.97;97498.13;4982091;28;20207;-35
2023/06/26 00:42:42;;;;;;;2.80;2.60;;;;;;;24.43;51.96;97501.56;4982251;28;20199;-28
2023/06/26 00:45:08;;;;;;;3.20;2.90;;;;;;;24.43;51.53;97501.56;4987815;28;20203;-29
2023/06/26 00:47:35;;;;;;;3.00;2.60;;;;;;;24.41;51.96;97498.09;4976950;28;20282;-28
2023/06/26 00:50:02;;;;;;;2.90;2.60;;;;;;;24.44;52.01;97503.28;4987117;28;20199;-28
2023/06/26 00:52:28;;;;;;;2.87;2.67;;;;;;;24.45;51.63;97497.28;4984652;28;20207;-28
2023/06/26 00:54:55;;;;;;;3.30;3.00;;;;;;;24.46;51.98;97504.19;4975223;28;20234;-30
2023/06/26 00:57:22;;;;;;;3.50;3.07;;;;;;;24.46;52.00;97499.03;4970145;28;20223;-29
2023/06/26 00:59:48;;;;;;;3.00;2.70;;;;;;;24.47;51.57;97503.34;4974856;28;20262;-28
2023/06/26 01:02:19;;;;;;;2.80;2.60;;;;;;;24.48;51.73;97502.47;4976795;28;20233;-28
2023/06/26 01:04:49;;;;;;;2.87;2.67;;;;;;;24.48;51.77;97509.34;4981391;28;20255;-28
2023/06/26 01:07:18;;;;;;;2.90;2.60;;;;;;;24.47;51.75;97505.03;4960816;28;20206;-28
2023/06/26 01:09:48;;;;;;;2.70;2.50;;;;;;;24.48;51.61;97501.63;4982437;28;20368;-28
2023/06/26 01:12:15;;;;;;;2.80;2.50;;;;;;;24.45;51.62;97494.72;4975463;28;20258;-28
2023/06/26 01:14:42;;;;;;;3.10;2.80;;;;;;;24.42;51.58;97491.25;4982156;28;20235;-29
2023/06/26 01:17:11;;;;;;;3.03;2.80;;;;;;;24.45;51.85;97504.16;4957410;28;20207;-28
2023/06/26 01:19:38;;;;;;;3.00;2.70;;;;;;;24.43;51.92;97499.00;4981358;28;20224;-29
2023/06/26 01:22:47;;;;;;;3.03;2.83;;;;;;;24.42;51.53;97502.38;4979032;28;20583;-32
2023/06/26 01:25:23;;;;;;;3.20;2.90;;;;;;;24.40;51.88;97498.94;4980208;28;20662;-29
2023/06/26 01:27:50;;;;;;;2.83;2.63;;;;;;;24.40;52.07;97498.06;4968378;28;20226;-28
2023/06/26 01:30:17;;;;;;;2.73;2.53;;;;;;;24.36;51.82;97496.25;4982205;28;20258;-28
2023/06/26 01:32:44;;;;;;;2.53;2.33;;;;;;;24.37;51.98;97496.28;4978862;28;20716;-28
2023/06/26 01:35:11;;;;;;;2.67;2.47;;;;;;;24.37;51.89;97496.28;4965084;28;20676;-28
2023/06/26 01:40:17;;;;;;;2.83;2.33;;;;;;;24.37;51.93;97486.00;5004370;28;20211;-26
2023/06/26 01:42:43;;;;;;;2.87;2.63;;;;;;;24.36;51.97;97489.41;5006895;28;20727;-26
2023/06/26 01:45:15;;;;;;;2.57;2.37;;;;;;;24.34;51.82;97488.53;4988386;28;20206;-26
2023/06/26 01:47:44;;;;;;;2.60;2.40;;;;;;;24.36;51.89;97489.41;4988354;28;20280;-26
2023/06/26 01:50:19;;;;;;;3.03;2.77;;;;;;;24.36;52.05;97492.00;4951468;28;20203;-26
2023/06/26 01:53:21;;;;;;;2.80;2.60;;;;;;;24.37;51.70;97492.88;4960586;28;20206;-26
2023/06/26 01:55:51;;;;;;;2.70;2.50;;;;;;;24.37;52.07;97491.16;4953179;28;20238;-26
2023/06/26 01:58:20;;;;;;;3.23;2.93;;;;;;;24.36;51.93;97492.00;4970953;28;20229;-26
2023/06/26 02:00:47;;;;;;;2.80;2.60;;;;;;;24.37;51.83;97504.00;4954859;28;20203;-26
2023/06/26 02:03:13;;;;;;;2.80;2.60;;;;;;;24.39;52.29;97488.63;4985817;28;20202;-26
2023/06/26 02:05:40;;;;;;;2.73;2.53;;;;;;;24.40;51.75;97495.50;4982282;28;20215;-33
2023/06/26 02:08:08;;;;;;;2.60;2.40;;;;;;;24.40;52.25;97498.06;4979093;28;20260;-26
2023/06/26 02:10:35;;;;;;;4.00;2.60;;;;;;;24.40;52.00;97496.38;4984049;28;20239;-26
2023/06/26 02:13:02;;;;;;;2.47;2.27;;;;;;;24.42;51.74;97496.41;4987518;28;20218;-26
2023/06/26 02:15:29;;;;;;;2.97;2.77;;;;;;;24.41;51.86;97492.94;4978868;28;20631;-26
2023/06/26 02:17:56;;;;;;;2.57;2.37;;;;;;;24.42;52.09;97491.25;4987709;28;20236;-26
2023/06/26 02:20:22;;;;;;;2.40;2.20;;;;;;;24.42;51.87;97493.81;4983487;28;20245;-26
2023/06/26 02:22:49;;;;;;;3.17;2.87;;;;;;;24.43;51.94;97491.28;4979619;28;20203;-26
2023/06/26 02:25:17;;;;;;;2.73;2.53;;;;;;;24.44;52.15;97494.69;4985304;28;20658;-26
2023/06/26 02:27:43;;;;;;;2.60;2.40;;;;;;;24.45;51.76;97502.44;4985251;28;20207;-30
2023/06/26 02:30:10;;;;;;;2.47;2.27;;;;;;;24.46;51.70;97500.72;4975277;28;20203;-26
2023/06/26 02:32:37;;;;;;;2.80;2.60;;;;;;;24.45;52.01;97496.44;4974157;28;20208;-26
2023/06/26 02:35:04;;;;;;;2.77;2.57;;;;;;;24.45;51.71;97491.31;4986454;28;20211;-26
2023/06/26 02:37:31;;;;;;;2.77;2.57;;;;;;;24.44;51.83;97493.00;4988833;28;20226;-26
2023/06/26 02:39:57;;;;;;;2.70;2.50;;;;;;;24.44;51.92;97494.69;4982144;28;20250;-26
2023/06/26 02:42:24;;;;;;;2.60;2.40;;;;;;;24.43;51.83;97508.38;4987201;28;20202;-26
2023/06/26 02:44:50;;;;;;;2.40;2.20;;;;;;;24.43;51.81;97495.53;4986381;28;20202;-29
2023/06/26 02:47:17;;;;;;;2.70;2.50;;;;;;;24.41;52.15;97498.09;4983200;28;20261;-26
2023/06/26 02:49:44;;;;;;;2.60;2.40;;;;;;;24.41;51.69;97495.53;4992930;28;20297;-26
2023/06/26 02:52:10;;;;;;;2.87;2.67;;;;;;;24.40;51.87;97498.06;4987913;28;20207;-26
2023/06/26 02:54:37;;;;;;;2.83;2.50;;;;;;;24.39;52.05;97489.47;4992849;28;20206;-26
2023/06/26 02:57:03;;;;;;;2.40;2.20;;;;;;;24.37;51.88;97486.00;4978109;28;20729;-26
2023/06/26 02:59:30;;;;;;;2.77;2.57;;;;;;;24.37;51.99;97486.00;4991303;28;20239;-26
2023/06/26 03:01:57;;;;;;;2.67;2.47;;;;;;;24.38;52.00;97486.88;4978975;28;20273;-26
2023/06/26 03:04:23;;;;;;;2.70;2.50;;;;;;;24.37;52.25;97493.72;4978956;28;20256;-26
2023/06/26 03:06:50;;;;;;;2.57;2.37;;;;;;;24.37;52.29;97498.84;4975755;28;20294;-26
2023/06/26 03:09:17;;;;;;;2.57;2.37;;;;;;;24.36;52.33;97488.53;4988581;28;20257;-26
2023/06/26 03:11:44;;;;;;;3.00;2.80;;;;;;;24.35;51.96;97500.56;4985918;28;20218;-26
2023/06/26 03:14:11;;;;;;;2.40;2.20;;;;;;;24.36;51.94;97491.13;4984420;28;20555;-26
2023/06/26 03:16:37;;;;;;;2.43;2.23;;;;;;;24.35;52.46;97487.69;4992013;28;20625;-26
2023/06/26 03:19:04;;;;;;;2.40;2.20;;;;;;;24.34;52.32;97488.53;4982091;28;20227;-26
2023/06/26 03:21:32;;;;;;;2.83;2.63;;;;;;;24.35;51.79;97491.97;4986054;28;20678;-26
2023/06/26 03:23:58;;;;;;;2.37;2.17;;;;;;;24.35;52.11;97490.28;4982039;28;20203;-26
2023/06/26 03:26:27;;;;;;;2.93;2.73;;;;;;;24.33;51.93;97484.22;4982676;28;20207;-26
2023/06/26 03:28:54;;;;;;;2.83;2.43;;;;;;;24.33;52.27;97486.81;4981684;28;20229;-26
2023/06/26 03:31:21;;;;;;;2.60;2.40;;;;;;;24.33;52.10;97486.81;4989152;28;20210;-26
2023/06/26 03:33:48;;;;;;;2.67;2.47;;;;;;;24.33;51.89;97491.06;4987411;28;20753;-26
2023/06/26 03:36:14;;;;;;;3.03;2.47;;;;;;;24.32;52.43;97486.78;4982790;28;20258;-26
2023/06/26 03:38:41;;;;;;;2.73;2.50;;;;;;;24.31;52.33;97496.16;4969885;28;20231;-26
2023/06/26 03:41:07;;;;;;;2.80;2.60;;;;;;;24.31;52.19;97488.47;4981072;28;20206;-26
2023/06/26 03:43:34;;;;;;;2.47;2.27;;;;;;;24.31;52.21;97493.59;4969252;28;20207;-26
2023/06/26 03:46:01;;;;;;;2.90;2.70;;;;;;;24.31;52.58;97490.19;4984826;28;20994;-26
2023/06/26 03:48:27;;;;;;;2.70;2.50;;;;;;;24.29;52.41;97491.84;4988823;28;20663;-26
2023/06/26 03:50:54;;;;;;;2.60;2.40;;;;;;;24.27;52.15;97489.25;4987489;28;20624;-26
2023/06/26 03:53:21;;;;;;;2.73;2.53;;;;;;;24.28;52.58;97488.41;4980952;28;20313;-26
2023/06/26 03:55:47;;;;;;;3.00;2.77;;;;;;;24.28;52.22;97483.28;4981283;28;20233;-26
2023/06/26 03:58:14;;;;;;;2.80;2.60;;;;;;;24.28;52.57;97487.56;4980705;28;20709;-26
2023/06/26 04:00:40;;;;;;;3.40;3.10;;;;;;;24.27;52.31;97486.69;4979966;28;20230;-26
2023/06/26 04:03:07;;;;;;;3.30;3.00;;;;;;;24.28;52.46;97490.13;4985699;28;20204;-26
2023/06/26 04:05:34;;;;;;;3.50;3.20;;;;;;;24.27;52.65;97489.25;4980198;28;20203;-26
2023/06/26 04:08:01;;;;;;;3.13;2.83;;;;;;;24.28;52.43;97487.56;4987360;28;20202;-26
2023/06/26 04:10:27;;;;;;;3.07;2.80;;;;;;;24.27;52.09;97488.38;4981573;28;20287;-26
2023/06/26 04:12:54;;;;;;;3.20;2.90;;;;;;;24.27;52.79;97489.25;4988307;28;20242;-26
2023/06/26 04:15:21;;;;;;;3.03;2.70;;;;;;;24.27;52.57;97483.25;4988642;28;20219;-26
2023/06/26 04:17:47;;;;;;;3.10;2.80;;;;;;;24.26;52.30;97484.97;4983751;28;20235;-26
2023/06/26 04:20:14;;;;;;;2.73;2.53;;;;;;;24.27;52.61;97488.38;4988706;28;20776;-26
2023/06/26 04:22:41;;;;;;;3.40;2.67;;;;;;;24.25;52.77;97488.34;4981698;28;20213;-26
2023/06/26 04:25:08;;;;;;;3.07;2.70;;;;;;;24.26;52.36;97484.09;4979620;28;20204;-27
2023/06/26 04:27:34;;;;;;;3.07;2.80;;;;;;;24.25;52.21;97487.50;4969721;28;20204;-26
2023/06/26 04:30:05;;;;;;;2.87;2.67;;;;;;;24.24;52.33;97496.03;4977783;28;20223;-26
2023/06/26 04:32:31;;;;;;;2.90;2.70;;;;;;;24.24;52.64;97486.63;4981131;28;20254;-26
2023/06/26 04:34:58;;;;;;;3.07;2.83;;;;;;;24.24;52.83;97493.47;4982565;28;20206;-26
2023/06/26 04:37:25;;;;;;;2.93;2.70;;;;;;;24.24;52.41;97496.03;4993022;28;20249;-26
2023/06/26 04:39:52;;;;;;;3.37;2.83;;;;;;;24.24;52.45;97496.03;4973510;28;20752;-27
2023/06/26 04:42:21;;;;;;;3.30;3.00;;;;;;;24.23;52.74;97495.19;4987207;28;20294;-26
2023/06/26 04:44:48;;;;;;;2.97;2.67;;;;;;;24.23;52.98;97495.19;4989411;28;20211;-26
2023/06/26 04:47:15;;;;;;;3.20;3.00;;;;;;;24.23;52.36;97508.03;4988583;28;20701;-26
2023/06/26 04:49:45;;;;;;;3.50;3.20;;;;;;;24.23;52.41;97500.31;4985153;28;20696;-26
2023/06/26 04:52:13;;;;;;;3.07;2.77;;;;;;;24.25;52.65;97495.22;4987209;28;20261;-26
2023/06/26 04:54:40;;;;;;;3.03;2.83;;;;;;;24.26;52.31;97491.81;4988467;28;20203;-26
2023/06/26 04:57:06;;;;;;;3.70;2.90;;;;;;;24.26;53.21;97497.81;4985034;28;20199;-26
2023/06/26 04:59:33;;;;;;;6.90;5.50;;;;;;;24.26;53.89;97492.69;4986410;28;20230;-26
2023/06/26 05:01:59;;;;;;;7.13;5.40;;;;;;;24.26;53.57;97492.69;4988956;28;20206;-26
2023/06/26 05:04:26;;;;;;;6.60;5.20;;;;;;;24.25;53.38;97496.06;4970658;28;20206;-26
2023/06/26 05:06:52;;;;;;;8.73;5.50;;;;;;;24.26;53.33;97496.94;4987996;28;20215;-26
2023/06/26 05:09:19;;;;;;;6.50;5.10;;;;;;;24.25;53.21;97496.06;4990262;28;20238;-26
2023/06/26 05:11:46;;;;;;;9.13;5.73;;;;;;;24.24;53.25;97486.63;4992311;28;20662;-26
2023/06/26 05:14:13;;;;;;;5.53;4.90;;;;;;;24.24;53.18;97489.22;4984218;28;20203;-26
2023/06/26 05:16:40;;;;;;;7.20;5.23;;;;;;;24.23;53.32;97484.91;4989068;28;20238;-33
2023/06/26 05:19:06;;;;;;;5.87;5.20;;;;;;;24.24;52.99;97485.75;4988076;28;20301;-26
2023/06/26 05:21:34;;;;;;;6.07;5.47;;;;;;;24.22;53.64;97483.16;4981770;28;20265;-26
2023/06/26 05:24:01;;;;;;;5.33;4.83;;;;;;;24.24;53.39;97478.94;4954651;28;20214;-27
2023/06/26 05:26:28;;;;;;;6.57;5.10;;;;;;;24.24;53.34;97483.19;4960952;28;20211;-26
2023/06/26 05:28:55;;;;;;;5.53;4.80;;;;;;;24.25;53.04;97484.94;4983528;28;20228;-26
2023/06/26 05:31:22;;;;;;;8.77;5.20;;;;;;;24.25;53.14;97493.50;4991442;28;20265;-26
2023/06/26 05:33:49;;;;;;;5.90;5.27;;;;;;;24.26;52.92;97490.13;4983811;28;20254;-27
2023/06/26 05:36:16;;;;;;;7.00;5.13;;;;;;;24.26;53.12;97497.81;4969641;28;20208;-26
2023/06/26 05:38:43;;;;;;;7.00;5.40;;;;;;;24.27;53.37;97496.09;4982479;28;20285;-26
2023/06/26 05:41:10;;;;;;;5.57;5.07;;;;;;;24.27;53.42;97493.53;4989992;28;20226;-27
2023/06/26 05:43:36;;;;;;;7.30;5.83;;;;;;;24.25;53.30;97490.09;4980116;28;20615;-26
2023/06/26 05:46:03;;;;;;;6.60;5.80;;;;;;;24.28;50.86;97490.13;4985653;28;20212;-26
2023/06/26 05:48:29;;;;;;;9.13;7.20;;;;;;;24.28;51.97;97488.41;4990140;28;20609;-26
2023/06/26 05:50:56;;;;;;;12.03;7.80;;;;;;;24.29;53.12;97487.59;4983139;28;20213;-26
2023/06/26 05:53:23;;;;;;;8.73;7.83;;;;;;;24.31;53.48;97493.59;4991343;28;20215;-26
2023/06/26 05:55:50;;;;;;;8.33;7.53;;;;;;;24.30;53.51;97488.44;4986538;28;20203;-26
2023/06/26 05:58:17;;;;;;;9.33;7.53;;;;;;;24.28;53.59;97485.00;4983800;28;20235;-26
2023/06/26 06:00:43;;;;;;;9.30;7.60;;;;;;;24.28;53.50;97487.56;4951673;28;20227;-26
2023/06/26 06:03:10;;;;;;;8.60;7.10;;;;;;;24.25;53.56;97488.34;4975274;28;20207;-26
2023/06/26 06:05:37;;;;;;;8.37;7.33;;;;;;;24.24;53.22;97485.75;4987922;28;20203;-26
2023/06/26 06:08:04;;;;;;;9.70;7.57;;;;;;;24.21;53.08;97484.00;4973243;28;20231;-26
2023/06/26 06:10:31;;;;;;;8.53;7.60;;;;;;;24.20;53.14;97489.13;4987983;28;20490;-26
2023/06/26 06:12:57;;;;;;;8.40;6.70;;;;;;;24.18;53.54;97493.34;4985773;28;20286;-26
2023/06/26 06:15:24;;;;;;;9.80;7.30;;;;;;;24.17;53.12;97486.50;4989048;28;20610;-26
2023/06/26 06:17:51;;;;;;;10.93;6.77;;;;;;;24.16;53.17;97497.63;4989553;28;20198;-26
2023/06/26 06:20:19;;;;;;;7.70;6.70;;;;;;;24.13;53.35;97482.16;4988321;28;20234;-26
2023/06/26 06:22:46;;;;;;;9.13;6.70;;;;;;;24.14;53.52;97478.75;4981999;28;20389;-26
2023/06/26 06:25:12;;;;;;;7.17;6.47;;;;;;;24.14;53.42;97481.31;4979855;28;20211;-27
2023/06/26 06:27:39;;;;;;;7.70;6.90;;;;;;;24.16;52.84;97474.50;4994831;28;20227;-26
2023/06/26 06:30:06;;;;;;;7.30;6.60;;;;;;;24.15;52.92;97476.19;4987414;28;20651;-26
2023/06/26 06:32:34;;;;;;;11.40;6.50;;;;;;;24.17;52.94;97479.66;4976765;28;20219;-26
2023/06/26 06:35:08;;;;;;;7.20;6.57;;;;;;;24.18;52.88;97472.81;4974540;28;20214;-26
2023/06/26 06:37:38;;;;;;;8.20;6.40;;;;;;;24.19;52.88;97474.56;4983381;28;20211;-31
2023/06/26 06:40:06;;;;;;;6.80;5.90;;;;;;;24.20;52.81;97474.59;4988088;28;20594;-26
2023/06/26 06:42:33;;;;;;;7.73;6.03;;;;;;;24.22;52.98;97479.75;4966403;28;20211;-26
2023/06/26 06:45:01;;;;;;;6.67;5.97;;;;;;;24.23;53.06;97481.47;4987916;28;20214;-26
2023/06/26 06:47:28;;;;;;;7.30;5.90;;;;;;;24.24;52.97;97478.06;4967072;28;20282;-27
2023/06/26 06:49:55;;;;;;;8.20;6.07;;;;;;;24.25;53.06;97469.53;4984924;28;20225;-26
2023/06/26 06:52:22;;;;;;;7.27;5.53;;;;;;;24.26;52.51;97471.25;4986956;28;20203;-26
2023/06/26 06:54:58;;;;;;;7.37;5.60;;;;;;;24.27;52.42;97467.84;4981401;28;20265;-26
2023/06/26 06:57:25;;;;;;;6.50;5.90;;;;;;;24.28;52.87;97474.72;4988622;28;20576;-26
2023/06/26 06:59:51;;;;;;;5.93;5.40;;;;;;;24.28;52.53;97470.44;4965255;28;20231;-26
2023/06/26 07:02:18;;;;;;;5.93;5.43;;;;;;;24.30;52.87;97479.03;4987930;28;20203;-26
2023/06/26 07:04:44;;;;;;;6.50;5.80;;;;;;;24.32;52.58;97484.22;4988221;28;20683;-26
2023/06/26 07:07:13;;;;;;;8.20;5.30;;;;;;;24.31;52.34;97467.91;4986865;28;20258;-26
2023/06/26 07:09:40;;;;;;;8.10;5.73;;;;;;;24.33;52.56;97467.94;4983461;28;20219;-26
2023/06/26 07:12:07;;;;;;;6.37;5.13;;;;;;;24.34;52.63;97462.00;4987292;28;20253;-26
2023/06/26 07:14:33;;;;;;;7.27;5.50;;;;;;;24.34;52.58;97465.41;4970673;28;20206;-26
2023/06/26 07:17:00;;;;;;;8.53;5.43;;;;;;;24.35;52.65;97467.16;4986853;28;20228;-26
2023/06/26 07:19:26;;;;;;;5.87;5.27;;;;;;;24.36;52.69;97468.88;4989155;28;20223;-26
2023/06/26 07:21:53;;;;;;;7.23;5.40;;;;;;;24.36;52.62;97468.88;4985588;28;20234;-26
2023/06/26 07:24:20;;;;;;;6.47;5.80;;;;;;;24.36;52.50;97476.59;4989412;28;20207;-26
2023/06/26 07:29:22;;;;;;;6.20;5.60;;;;;;;24.39;52.17;97475.78;4967672;28;20213;-22
2023/06/26 07:31:49;;;;;;;6.90;5.33;;;;;;;24.40;52.57;97469.81;4964738;28;20204;-23
2023/06/26 07:34:15;;;;;;;6.07;5.40;;;;;;;24.40;52.62;97469.81;4963305;28;20210;-26
2023/06/26 07:36:42;;;;;;;5.97;5.47;;;;;;;24.40;52.02;97462.09;4969746;28;20207;-34
2023/06/26 07:39:09;;;;;;;6.30;5.50;;;;;;;24.40;52.48;97470.69;4966550;28;20283;-29
2023/06/26 07:44:14;;;;;;;5.63;5.13;;;;;;;24.42;52.33;97468.97;4982369;28;20207;-24
2023/06/26 07:46:40;;;;;;;5.33;4.83;;;;;;;24.42;51.88;97468.13;4985051;28;20206;-25
2023/06/26 07:49:07;;;;;;;6.07;5.47;;;;;;;24.43;52.10;97467.28;4982187;28;20289;-25
2023/06/26 07:51:33;;;;;;;5.03;4.57;;;;;;;24.42;52.05;97461.28;4980025;28;20211;-25
2023/06/26 07:54:00;;;;;;;5.77;5.17;;;;;;;24.44;52.03;97459.59;4996372;28;20656;-25
2023/06/26 07:56:27;;;;;;;5.60;5.10;;;;;;;24.44;51.92;97461.28;4980589;28;20288;-26
2023/06/26 07:58:53;;;;;;;6.00;5.27;;;;;;;24.45;51.86;97463.06;4982522;28;20210;-25
2023/06/26 08:01:20;;;;;;;5.60;5.00;;;;;;;24.45;51.82;97460.47;4975110;28;20227;-25
2023/06/26 08:03:47;;;;;;;6.33;5.10;;;;;;;24.45;51.84;97460.47;4979009;28;20632;-25
2023/06/26 08:06:14;;;;;;;5.53;5.03;;;;;;;24.45;52.07;97463.88;4980886;28;20203;-25
2023/06/26 08:08:41;;;;;;;5.43;4.93;;;;;;;24.45;52.21;97456.19;4977406;28;20258;-25
2023/06/26 08:11:07;;;;;;;5.70;5.20;;;;;;;24.46;51.81;97444.22;4978787;28;20280;-25
2023/06/26 08:13:34;;;;;;;5.33;4.83;;;;;;;24.45;52.01;97445.91;4976985;28;20235;-25
2023/06/26 08:16:00;;;;;;;5.97;4.90;;;;;;;24.46;52.02;97449.34;4982999;28;20574;-25
2023/06/26 08:18:27;;;;;;;5.50;5.00;;;;;;;24.45;52.18;97445.91;4974538;28;20263;-26
2023/06/26 08:20:54;;;;;;;5.20;4.77;;;;;;;24.47;51.77;97443.38;4976289;28;20639;-25
2023/06/26 08:23:22;;;;;;;5.50;5.00;;;;;;;24.48;51.73;97439.97;4976886;28;20717;-25
2023/06/26 08:25:52;;;;;;;5.47;4.93;;;;;;;24.47;52.14;97439.09;4982246;28;20583;-24
2023/06/26 08:28:18;;;;;;;6.13;5.03;;;;;;;24.48;52.23;97437.41;4982825;28;20674;-25
2023/06/26 08:30:45;;;;;;;5.37;4.87;;;;;;;24.48;51.86;97435.69;4980679;28;20211;-26
2023/06/26 08:33:12;;;;;;;5.60;4.20;;;;;;;24.47;51.82;97433.97;4974014;28;20226;-25
2023/06/26 08:35:38;;;;;;;5.47;4.97;;;;;;;24.48;51.91;97438.25;4979882;28;20692;-25
2023/06/26 08:38:05;;;;;;;5.10;4.70;;;;;;;24.48;51.76;97440.81;4980388;28;20207;-26
2023/06/26 08:40:31;;;;;;;5.10;4.60;;;;;;;24.48;51.73;97442.53;4977933;28;20290;-25
2023/06/26 08:42:58;;;;;;;5.40;4.90;;;;;;;24.46;52.16;97429.69;4981176;28;20253;-25
2023/06/26 08:45:25;;;;;;;5.30;4.80;;;;;;;24.49;51.94;97437.44;4984727;28;20206;-24
2023/06/26 08:47:52;;;;;;;5.33;4.83;;;;;;;24.44;51.78;97423.63;5002625;28;20589;-25
2023/06/26 08:50:19;;;;;;;5.87;5.03;;;;;;;24.48;51.98;97433.13;4974961;28;20744;-26
2023/06/26 08:53:06;;;;;;;5.07;4.57;;;;;;;24.48;51.98;97429.69;4999865;28;20296;-25
2023/06/26 08:55:33;;;;;;;5.17;4.77;;;;;;;24.46;51.96;97426.22;4982049;28;20210;-25
2023/06/26 08:58:01;;;;;;;5.13;4.70;;;;;;;24.47;52.00;97425.38;4978648;28;20203;-26
2023/06/26 09:00:28;;;;;;;5.47;4.97;;;;;;;24.47;51.63;97433.97;4965022;28;20223;-25
2023/06/26 09:02:54;;;;;;;5.07;4.53;;;;;;;24.47;51.81;97433.09;4979910;28;20229;-26
2023/06/26 09:05:21;;;;;;;4.87;4.47;;;;;;;24.46;51.75;97421.09;4954932;28;20239;-25
2023/06/26 09:07:48;;;;;;;5.00;4.50;;;;;;;24.47;51.90;97426.25;5001726;28;20217;-24
2023/06/26 09:10:14;;;;;;;4.93;4.53;;;;;;;24.47;52.06;97426.25;4978793;28;20250;-26
2023/06/26 09:12:41;;;;;;;5.23;4.73;;;;;;;24.47;52.15;97420.25;5001530;28;20226;-24
2023/06/26 09:15:08;;;;;;;4.90;4.50;;;;;;;24.46;51.42;97418.53;4979316;28;20333;-25
2023/06/26 09:17:39;;;;;;;5.40;4.90;;;;;;;24.47;51.68;97423.69;5003664;28;20897;-25
2023/06/26 09:20:07;;;;;;;6.23;5.07;;;;;;;24.46;52.13;97416.81;5001411;28;20622;-25
2023/06/26 09:22:38;;;;;;;5.67;5.17;;;;;;;24.48;51.96;97416.84;5002173;28;20222;-24
2023/06/26 09:25:05;;;;;;;5.50;4.67;;;;;;;24.47;51.80;97421.13;5004571;28;20443;-25
2023/06/26 09:27:32;;;;;;;4.60;4.20;;;;;;;24.48;51.82;97429.69;4986156;28;20215;-25
2023/06/26 09:29:59;;;;;;;4.83;4.33;;;;;;;24.48;51.83;97419.44;4988237;28;20199;-26
2023/06/26 09:32:25;;;;;;;5.17;4.63;;;;;;;24.47;51.99;97413.41;4998367;28;20639;-25
2023/06/26 09:34:52;;;;;;;6.90;4.57;;;;;;;24.49;52.05;97416.00;5009130;28;20202;-25
2023/06/26 09:37:19;;;;;;;6.43;4.87;;;;;;;24.49;51.82;97410.88;5002461;28;20210;-25
2023/06/26 09:39:46;;;;;;;5.30;4.73;;;;;;;24.48;52.07;97406.56;4987336;28;20202;-25
2023/06/26 09:42:15;;;;;;;5.03;4.53;;;;;;;24.49;51.59;97410.88;5009407;28;20222;-25
2023/06/26 09:44:45;;;;;;;4.77;4.37;;;;;;;24.49;52.06;97404.03;5007915;28;20229;-24
2023/06/26 09:47:12;;;;;;;5.00;4.50;;;;;;;24.49;51.79;97404.03;5004157;28;20202;-25
2023/06/26 09:49:45;;;;;;;4.53;4.13;;;;;;;24.50;51.67;97407.44;4979204;28;20206;-26
2023/06/26 09:52:16;;;;;;;4.90;4.40;;;;;;;24.49;51.95;97398.91;4997872;28;20222;-25
2023/06/26 09:54:46;;;;;;;4.97;4.57;;;;;;;24.50;52.14;97402.31;4995927;28;20242;-24
2023/06/26 09:57:13;;;;;;;4.37;3.97;;;;;;;24.50;51.65;97397.16;4996699;28;20206;-25
2023/06/26 09:59:40;;;;;;;5.13;4.40;;;;;;;24.49;51.70;97401.47;4998087;28;20199;-25
2023/06/26 10:02:07;;;;;;;5.00;4.50;;;;;;;24.48;51.67;97393.72;4999771;28;20460;-25
2023/06/26 10:04:37;;;;;;;4.60;4.20;;;;;;;24.50;51.58;97404.88;5001789;28;20214;-25
2023/06/26 10:07:05;;;;;;;4.73;4.33;;;;;;;24.49;51.70;97395.44;4997566;28;20226;-25
2023/06/26 10:09:32;;;;;;;4.67;4.27;;;;;;;24.50;51.96;97397.16;4994942;28;20203;-25
2023/06/26 10:12:07;;;;;;;4.80;4.40;;;;;;;24.49;51.76;97391.19;4986788;28;20266;-26
2023/06/26 10:14:35;;;;;;;5.13;4.63;;;;;;;24.48;51.34;97392.00;4984906;28;20711;-26
2023/06/26 10:17:04;;;;;;;4.60;4.20;;;;;;;24.49;51.62;97390.31;4998576;28;20216;-25
2023/06/26 10:19:30;;;;;;;4.90;4.40;;;;;;;24.48;51.44;97389.44;4997759;28;20264;-25
2023/06/26 10:21:57;;;;;;;4.60;4.20;;;;;;;24.48;51.67;97389.44;5003325;28;20276;-25
2023/06/26 10:24:24;;;;;;;4.60;4.20;;;;;;;24.48;51.66;97383.47;4970329;28;20308;-25
2023/06/26 10:26:52;;;;;;;4.77;4.30;;;;;;;24.47;51.57;97385.16;4986415;28;20624;-25
2023/06/26 10:29:19;;;;;;;5.00;4.50;;;;;;;24.47;51.86;97382.59;4991601;28;20276;-24
2023/06/26 10:31:50;;;;;;;4.70;4.30;;;;;;;24.48;51.99;97386.03;5005590;28;20198;-25
2023/06/26 10:34:16;;;;;;;4.57;4.17;;;;;;;24.44;51.82;97374.81;4953998;28;20383;-25
2023/06/26 10:36:43;;;;;;;4.50;4.10;;;;;;;24.47;51.56;97379.13;4995052;28;20213;-26
2023/06/26 10:39:09;;;;;;;4.93;4.50;;;;;;;24.45;51.94;97371.41;4987305;28;20218;-25
2023/06/26 10:41:38;;;;;;;4.63;4.23;;;;;;;24.46;51.62;97369.72;5004980;28;20283;-24
2023/06/26 10:44:16;;;;;;;4.33;3.93;;;;;;;24.46;51.78;97369.72;4998911;28;20283;-28
2023/06/26 10:46:53;;;;;;;4.60;4.20;;;;;;;24.45;52.13;97368.00;4998458;28;20229;-25
2023/06/26 10:49:21;;;;;;;4.57;4.17;;;;;;;24.45;51.98;97366.25;5001310;28;20219;-25
2023/06/26 10:51:50;;;;;;;8.17;5.00;;;;;;;24.45;51.75;97363.69;5002803;28;20252;-25
2023/06/26 10:54:18;;;;;;;4.77;4.17;;;;;;;24.46;52.31;97365.44;4996566;28;20613;-25
2023/06/26 10:56:56;;;;;;;5.93;4.90;;;;;;;24.46;51.81;97370.59;4985914;28;20202;-25
2023/06/26 10:59:24;;;;;;;4.30;3.90;;;;;;;24.46;52.21;97364.56;5000848;28;20622;-25
2023/06/26 11:02:01;;;;;;;8.87;4.70;;;;;;;24.46;52.40;97370.59;4998735;28;20229;-25
2023/06/26 11:04:39;;;;;;;6.73;4.10;;;;;;;24.47;51.84;97366.28;5005226;28;20207;-25
2023/06/26 11:07:25;;;;;;;4.70;4.30;;;;;;;24.46;51.97;97359.44;5003415;28;20206;-25
2023/06/26 11:09:59;;;;;;;5.47;4.53;;;;;;;24.47;51.74;97363.72;4999335;28;20740;-25
2023/06/26 11:12:42;;;;;;;4.53;4.13;;;;;;;24.46;52.06;97356.88;5002018;28;20224;-25
2023/06/26 11:15:15;;;;;;;4.67;4.27;;;;;;;24.46;51.67;97352.59;4998956;28;20304;-25
2023/06/26 11:17:42;;;;;;;4.53;4.13;;;;;;;24.46;51.71;97346.59;5000213;28;20202;-25
2023/06/26 11:20:10;;;;;;;6.30;4.23;;;;;;;24.46;51.83;97351.72;4995433;28;20230;-25
2023/06/26 11:22:38;;;;;;;6.80;4.53;;;;;;;24.45;51.76;97350.84;5001094;28;20258;-25
2023/06/26 11:25:05;;;;;;;4.63;4.07;;;;;;;24.46;51.78;97355.16;4998121;28;20211;-24
2023/06/26 11:27:32;;;;;;;4.90;4.23;;;;;;;24.31;51.73;97329.22;5000004;28;20650;-25
2023/06/26 11:30:00;;;;;;;3.93;3.63;;;;;;;24.46;52.09;97350.03;5004884;28;20206;-26
2023/06/26 11:32:28;;;;;;;5.30;4.80;;;;;;;24.47;52.13;97345.75;5002823;28;20230;-25
2023/06/26 11:34:54;;;;;;;6.00;5.30;;;;;;;24.46;51.75;97336.31;5001867;28;20198;-25
2023/06/26 11:37:21;;;;;;;8.07;5.80;;;;;;;24.45;51.67;97340.56;5005180;28;20676;-25
2023/06/26 11:39:48;;;;;;;8.30;5.77;;;;;;;24.46;53.40;97334.63;5005659;28;20218;-25
2023/06/26 11:42:15;;;;;;;9.40;5.70;;;;;;;24.47;54.74;97331.19;4997358;28;20292;-26
2023/06/26 11:44:42;;;;;;;8.27;5.97;;;;;;;24.49;54.18;97324.38;5005197;28;20343;-25